createdAt,value
2022-10-07T00:01:03.957Z,2.67
2022-10-07T00:03:31.247Z,2.25
2022-10-07T00:06:07.470Z,2.50
2022-10-07T00:08:40.416Z,2.22
2022-10-07T00:11:10.366Z,1.90
2022-10-07T00:14:18.296Z,1.80
2022-10-07T00:16:44.977Z,1.97
2022-10-07T00:19:14.110Z,1.93
2022-10-07T00:21:41.895Z,2.63
2022-10-07T00:24:25.417Z,2.20
2022-10-07T00:26:52.098Z,2.03
2022-10-07T00:29:18.792Z,1.80
2022-10-07T00:31:45.503Z,1.90
2022-10-07T00:34:12.493Z,2.80
2022-10-07T00:36:39.554Z,2.13
2022-10-07T00:39:12.304Z,1.80
2022-10-07T00:41:45.639Z,2.13
2022-10-07T00:44:31.206Z,1.92
2022-10-07T00:47:32.154Z,1.60
2022-10-07T00:50:06.784Z,1.87
2022-10-07T00:52:42.661Z,2.30
2022-10-07T00:55:19.080Z,1.90
2022-10-07T00:57:49.913Z,1.70
2022-10-07T01:00:17.286Z,2.50
2022-10-07T01:02:45.055Z,1.90
2022-10-07T01:05:14.094Z,2.33
2022-10-07T01:07:43.826Z,1.93
2022-10-07T01:10:13.596Z,1.93
2022-10-07T01:13:05.068Z,2.70
2022-10-07T01:15:46.085Z,1.67
2022-10-07T01:18:22.833Z,2.60
2022-10-07T01:21:11.657Z,1.67
2022-10-07T01:24:09.685Z,1.63
2022-10-07T01:27:01.839Z,2.40
2022-10-07T01:29:39.381Z,2.07
2022-10-07T01:32:24.151Z,2.00
2022-10-07T01:35:00.754Z,1.98
2022-10-07T01:37:35.665Z,2.23
2022-10-07T01:40:10.193Z,2.83
2022-10-07T01:42:39.284Z,2.00
2022-10-07T01:45:12.172Z,1.70
2022-10-07T01:47:40.005Z,2.17
2022-10-07T01:50:30.716Z,2.10
2022-10-07T01:53:34.676Z,2.10
2022-10-07T01:56:22.498Z,1.93
2022-10-07T01:59:38.729Z,1.90
2022-10-07T02:02:53.721Z,1.97
2022-10-07T02:05:36.492Z,2.33
2022-10-07T02:08:31.186Z,2.10
2022-10-07T02:11:08.144Z,2.40
2022-10-07T02:13:55.892Z,2.70
2022-10-07T02:16:38.326Z,2.20
2022-10-07T02:19:15.427Z,2.07
2022-10-07T02:21:49.515Z,2.40
2022-10-07T02:24:23.432Z,2.33
2022-10-07T02:26:54.511Z,2.00
2022-10-07T02:29:23.834Z,2.17
2022-10-07T02:31:53.079Z,2.30
2022-10-07T02:34:24.653Z,2.43
2022-10-07T02:37:00.740Z,2.30
2022-10-07T02:39:29.146Z,2.13
2022-10-07T02:42:17.451Z,2.30
2022-10-07T02:45:26.767Z,2.67
2022-10-07T02:48:14.965Z,3.03
2022-10-07T02:50:51.274Z,2.70
2022-10-07T02:53:21.304Z,2.40
2022-10-07T02:55:52.254Z,2.77
2022-10-07T02:58:24.125Z,2.40
2022-10-07T03:00:58.088Z,2.57
2022-10-07T03:03:27.460Z,2.70
2022-10-07T03:05:54.977Z,2.53
2022-10-07T03:08:23.051Z,2.40
2022-10-07T03:10:49.746Z,3.00
2022-10-07T03:13:16.625Z,2.67
2022-10-07T03:15:43.438Z,3.20
2022-10-07T03:18:26.136Z,2.33
2022-10-07T03:21:00.121Z,2.03
2022-10-07T03:23:29.140Z,3.23
2022-10-07T03:25:58.853Z,2.40
2022-10-07T03:28:30.054Z,3.37
2022-10-07T03:31:07.974Z,2.40
2022-10-07T03:33:35.597Z,2.83
2022-10-07T03:36:02.310Z,2.73
2022-10-07T03:38:29.102Z,2.63
2022-10-07T03:40:55.890Z,3.00
2022-10-07T03:43:23.841Z,2.80
2022-10-07T03:45:52.833Z,2.47
2022-10-07T03:48:20.349Z,2.20
2022-10-07T03:50:57.715Z,2.63
2022-10-07T03:53:27.268Z,2.87
2022-10-07T03:55:53.974Z,3.10
2022-10-07T03:58:20.754Z,2.80
2022-10-07T04:00:47.821Z,4.80
2022-10-07T04:03:18.529Z,2.30
2022-10-07T04:06:00.514Z,2.87
2022-10-07T04:08:29.121Z,2.33
2022-10-07T04:10:57.481Z,2.33
2022-10-07T04:13:25.581Z,2.30
2022-10-07T04:15:53.481Z,2.47
2022-10-07T04:18:21.184Z,3.77
2022-10-07T04:20:48.477Z,3.13
2022-10-07T04:23:16.495Z,2.40
2022-10-07T04:25:46.178Z,2.77
2022-10-07T04:28:18.755Z,2.90
2022-10-07T04:30:50.977Z,2.93
2022-10-07T04:33:24.021Z,2.90
2022-10-07T04:35:51.512Z,2.30
2022-10-07T04:38:19.019Z,2.57
2022-10-07T04:40:52.059Z,2.47
2022-10-07T04:43:37.767Z,2.33
2022-10-07T04:46:14.886Z,2.50
2022-10-07T04:48:45.730Z,2.40
2022-10-07T04:51:13.146Z,2.87
2022-10-07T04:53:40.292Z,2.10
2022-10-07T04:56:08.822Z,2.23
2022-10-07T04:58:36.868Z,2.83
2022-10-07T05:01:09.932Z,2.50
2022-10-07T05:03:41.823Z,2.70
2022-10-07T05:06:10.098Z,2.60
2022-10-07T05:08:37.258Z,3.17
2022-10-07T05:11:04.542Z,2.37
2022-10-07T05:13:32.401Z,2.73
2022-10-07T05:16:02.357Z,2.40
2022-10-07T05:18:31.255Z,2.57
2022-10-07T05:20:57.984Z,3.10
2022-10-07T05:23:28.899Z,2.70
2022-10-07T05:26:01.917Z,2.83
2022-10-07T05:28:28.805Z,3.80
2022-10-07T05:31:11.652Z,2.43
2022-10-07T05:33:39.424Z,2.30
2022-10-07T05:36:10.803Z,3.07
2022-10-07T05:38:38.303Z,2.13
2022-10-07T05:41:11.731Z,2.00
2022-10-07T05:43:43.916Z,3.20
2022-10-07T05:46:16.591Z,2.20
2022-10-07T05:48:49.048Z,2.70
2022-10-07T05:51:15.885Z,2.33
2022-10-07T05:53:44.781Z,2.30
2022-10-07T05:56:21.339Z,2.40
2022-10-07T05:58:52.631Z,2.40
2022-10-07T06:01:22.730Z,2.30
2022-10-07T06:04:13.896Z,2.07
2022-10-07T06:06:40.645Z,2.63
2022-10-07T06:09:26.272Z,2.30
2022-10-07T06:12:11.636Z,2.17
2022-10-07T06:14:38.313Z,2.57
2022-10-07T06:17:05.047Z,2.07
2022-10-07T06:19:31.832Z,1.93
2022-10-07T06:21:58.603Z,2.47
2022-10-07T06:24:25.800Z,2.27
2022-10-07T06:26:55.375Z,2.37
2022-10-07T06:29:22.331Z,2.00
2022-10-07T06:31:51.735Z,2.03
2022-10-07T06:34:19.199Z,2.05
2022-10-07T06:36:45.875Z,2.20
2022-10-07T06:39:12.571Z,2.30
2022-10-07T06:41:39.315Z,2.20
2022-10-07T06:44:06.152Z,2.10
2022-10-07T06:46:32.920Z,1.90
2022-10-07T06:48:59.580Z,2.37
2022-10-07T06:51:26.351Z,2.13
2022-10-07T06:53:57.910Z,2.92
2022-10-07T06:56:24.956Z,2.05
2022-10-07T06:58:51.667Z,2.97
2022-10-07T07:01:18.794Z,1.63
2022-10-07T07:03:48.065Z,2.20
2022-10-07T07:06:14.848Z,2.05
2022-10-07T07:08:41.785Z,1.97
2022-10-07T07:11:30.958Z,2.42
2022-10-07T07:13:58.481Z,2.50
2022-10-07T07:16:25.788Z,1.65
2022-10-07T07:18:57.745Z,2.15
2022-10-07T07:21:28.651Z,2.03
2022-10-07T07:24:04.545Z,3.05
2022-10-07T07:26:31.417Z,1.52
2022-10-07T07:29:05.307Z,2.33
2022-10-07T07:31:36.918Z,1.70
2022-10-07T07:34:11.739Z,2.40
2022-10-07T07:36:45.830Z,2.17
2022-10-07T07:39:17.242Z,2.00
2022-10-07T07:41:47.585Z,2.40
2022-10-07T07:44:17.648Z,1.23
2022-10-07T07:46:56.501Z,1.77
2022-10-07T07:49:24.375Z,2.10
2022-10-07T07:51:51.109Z,1.75
2022-10-07T07:54:18.898Z,2.47
2022-10-07T07:56:45.567Z,1.42
2022-10-07T07:59:13.455Z,2.00
2022-10-07T08:01:40.947Z,2.13
2022-10-07T08:04:07.791Z,1.35
2022-10-07T08:06:34.763Z,1.63
2022-10-07T08:09:01.586Z,2.22
2022-10-07T08:11:34.290Z,1.52
2022-10-07T08:14:03.206Z,1.80
2022-10-07T08:16:30.295Z,1.52
2022-10-07T08:18:57.801Z,1.92
2022-10-07T08:21:28.371Z,1.52
2022-10-07T08:23:58.148Z,1.55
2022-10-07T08:26:26.675Z,1.75
2022-10-07T08:28:53.392Z,1.80
2022-10-07T08:31:21.666Z,1.85
2022-10-07T08:33:51.148Z,1.48
2022-10-07T08:36:23.307Z,2.22
2022-10-07T08:38:51.538Z,2.67
2022-10-07T08:42:13.235Z,2.65
2022-10-07T08:44:44.546Z,1.10
2022-10-07T08:47:47.341Z,1.27
2022-10-07T08:50:25.145Z,1.65
2022-10-07T08:53:00.198Z,2.08
2022-10-07T08:55:46.304Z,1.45
2022-10-07T08:58:50.711Z,1.85
2022-10-07T09:02:12.261Z,3.15
2022-10-07T09:05:06.588Z,1.30
2022-10-07T09:07:49.902Z,1.50
2022-10-07T09:10:32.680Z,1.98
2022-10-07T09:13:28.288Z,1.90
2022-10-07T09:16:08.850Z,1.55
2022-10-07T09:18:46.101Z,1.60
2022-10-07T09:21:24.091Z,1.88
2022-10-07T09:23:56.440Z,1.85
2022-10-07T09:26:25.478Z,1.70
2022-10-07T09:28:52.426Z,1.95
2022-10-07T09:31:23.575Z,1.92
2022-10-07T09:33:55.078Z,1.80
2022-10-07T09:36:21.896Z,1.52
2022-10-07T09:38:52.395Z,3.22
2022-10-07T09:41:35.852Z,1.92
2022-10-07T09:44:29.113Z,2.03
2022-10-07T09:46:59.427Z,2.03
2022-10-07T09:49:29.190Z,2.50
2022-10-07T09:52:20.495Z,2.67
2022-10-07T09:54:52.456Z,1.58
2022-10-07T09:57:58.539Z,1.38
2022-10-07T10:00:27.576Z,1.65
2022-10-07T10:03:07.958Z,1.45
2022-10-07T10:05:39.655Z,1.50
2022-10-07T10:08:18.479Z,1.85
2022-10-07T10:11:03.849Z,1.40
2022-10-07T10:13:40.740Z,2.30
2022-10-07T10:16:28.608Z,1.90
2022-10-07T10:19:02.074Z,2.15
2022-10-07T10:21:46.295Z,1.80
2022-10-07T10:24:16.076Z,1.83
2022-10-07T10:27:06.815Z,1.70
2022-10-07T10:29:56.306Z,1.70
2022-10-07T10:33:05.445Z,1.60
2022-10-07T10:35:45.588Z,1.52
2022-10-07T10:38:33.932Z,2.25
2022-10-07T10:41:19.969Z,1.98
2022-10-07T10:44:04.880Z,1.70
2022-10-07T10:47:00.443Z,1.65
2022-10-07T10:49:47.124Z,1.83
2022-10-07T10:52:58.537Z,2.15
2022-10-07T10:55:46.053Z,1.30
2022-10-07T10:58:35.679Z,1.42
2022-10-07T11:01:29.486Z,1.83
2022-10-07T11:04:31.290Z,1.38
2022-10-07T11:07:18.189Z,1.85
2022-10-07T11:10:13.757Z,1.88
2022-10-07T11:12:46.789Z,1.30
2022-10-07T11:15:23.774Z,1.83
2022-10-07T11:17:54.433Z,2.28
2022-10-07T11:20:31.170Z,1.73
2022-10-07T11:23:21.260Z,1.65
2022-10-07T11:25:59.259Z,1.40
2022-10-07T11:28:34.923Z,1.25
2022-10-07T11:31:11.664Z,1.95
2022-10-07T11:34:26.381Z,1.33
2022-10-07T11:37:24.214Z,1.40
2022-10-07T11:39:53.576Z,1.30
2022-10-07T11:42:44.432Z,1.10
2022-10-07T11:45:23.683Z,1.13
2022-10-07T11:47:58.749Z,1.52
2022-10-07T11:50:37.633Z,0.98
2022-10-07T11:53:14.674Z,0.93
2022-10-07T11:55:55.043Z,1.30
2022-10-07T11:58:36.118Z,1.23
2022-10-07T12:01:30.828Z,1.33
2022-10-07T12:04:35.111Z,0.90
2022-10-07T12:07:40.593Z,1.10
2022-10-07T12:10:18.062Z,1.13
2022-10-07T12:12:45.795Z,2.17
2022-10-07T12:15:40.481Z,1.15
2022-10-07T12:18:07.101Z,1.20
2022-10-07T12:20:34.562Z,1.33
2022-10-07T12:23:28.160Z,1.10
2022-10-07T12:26:30.769Z,2.08
2022-10-07T12:28:59.324Z,1.20
2022-10-07T12:31:25.971Z,0.90
2022-10-07T12:34:04.705Z,1.23
2022-10-07T12:36:31.765Z,1.25
2022-10-07T12:38:59.141Z,0.90
2022-10-07T12:41:40.801Z,1.00
2022-10-07T12:44:31.635Z,1.00
2022-10-07T12:47:12.879Z,1.35
2022-10-07T12:49:59.101Z,2.17
2022-10-07T12:52:48.212Z,1.70
2022-10-07T12:55:29.790Z,1.55
2022-10-07T12:58:18.428Z,1.02
2022-10-07T13:01:18.776Z,1.10
2022-10-07T13:04:09.993Z,0.82
2022-10-07T13:07:00.575Z,1.35
2022-10-07T13:10:01.933Z,1.17
2022-10-07T13:12:51.205Z,1.65
2022-10-07T13:15:33.230Z,0.95
2022-10-07T13:18:45.271Z,1.20
2022-10-07T13:21:14.688Z,1.10
2022-10-07T13:23:53.137Z,1.98
2022-10-07T13:26:24.018Z,2.10
2022-10-07T13:28:55.998Z,1.80
2022-10-07T13:31:34.185Z,1.25
2022-10-07T13:34:15.293Z,1.05
2022-10-07T13:36:45.663Z,1.17
2022-10-07T13:39:18.429Z,1.35
2022-10-07T13:41:55.460Z,1.10
2022-10-07T13:44:27.309Z,1.40
2022-10-07T13:47:05.013Z,1.33
2022-10-07T13:49:47.504Z,2.50
2022-10-07T13:52:37.686Z,1.20
2022-10-07T13:55:25.418Z,1.27
2022-10-07T13:57:57.097Z,1.60
2022-10-07T14:00:29.743Z,1.50
2022-10-07T14:02:56.600Z,1.60
2022-10-07T14:05:30.564Z,2.53
2022-10-07T14:08:27.727Z,1.55
2022-10-07T14:11:22.614Z,1.00
2022-10-07T14:13:49.364Z,0.98
2022-10-07T14:16:24.312Z,1.45
2022-10-07T14:18:52.616Z,1.17
2022-10-07T14:21:19.419Z,1.35
2022-10-07T14:23:46.976Z,1.35
2022-10-07T14:26:17.636Z,1.42
2022-10-07T14:28:44.873Z,1.27
2022-10-07T14:31:39.276Z,1.42
2022-10-07T14:34:37.199Z,1.23
2022-10-07T14:37:09.717Z,1.30
2022-10-07T14:39:52.453Z,1.40
2022-10-07T14:42:27.740Z,1.27
2022-10-07T14:44:57.178Z,1.63
2022-10-07T14:47:28.135Z,1.33
2022-10-07T14:49:57.824Z,1.42
2022-10-07T14:52:42.046Z,1.20
2022-10-07T14:55:15.630Z,1.50
2022-10-07T14:57:42.995Z,1.35
2022-10-07T15:00:20.102Z,1.25
2022-10-07T15:02:53.130Z,1.20
2022-10-07T15:05:20.365Z,1.10
2022-10-07T15:07:47.085Z,0.90
2022-10-07T15:10:26.231Z,1.17
2022-10-07T15:12:55.886Z,1.45
2022-10-07T15:15:22.697Z,1.50
2022-10-07T15:17:49.430Z,1.13
2022-10-07T15:20:17.133Z,1.45
2022-10-07T15:22:45.610Z,1.25
2022-10-07T15:25:15.163Z,1.30
2022-10-07T15:27:45.340Z,1.52
2022-10-07T15:30:12.957Z,1.40
2022-10-07T15:32:40.587Z,1.38
2022-10-07T15:35:08.182Z,1.60
2022-10-07T15:37:34.942Z,1.10
2022-10-07T15:40:01.671Z,1.13
2022-10-07T15:42:28.737Z,1.88
2022-10-07T15:44:55.541Z,1.58
2022-10-07T15:47:24.656Z,1.40
2022-10-07T15:49:53.425Z,1.30
2022-10-07T15:52:20.100Z,1.15
2022-10-07T15:54:46.795Z,1.10
2022-10-07T15:57:14.287Z,1.95
2022-10-07T15:59:42.113Z,1.10
2022-10-07T16:02:18.773Z,1.23
2022-10-07T16:04:47.174Z,1.27
2022-10-07T16:07:15.903Z,1.08
2022-10-07T16:09:42.628Z,1.08
2022-10-07T16:12:09.384Z,1.02
2022-10-07T16:14:36.146Z,1.05
2022-10-07T16:17:03.309Z,1.45
2022-10-07T16:19:30.043Z,1.08
2022-10-07T16:21:56.889Z,1.00
2022-10-07T16:24:24.933Z,1.60
2022-10-07T16:26:51.747Z,1.08
2022-10-07T16:29:42.828Z,1.00
2022-10-07T16:32:18.709Z,1.42
2022-10-07T16:34:46.808Z,1.55
2022-10-07T16:37:14.337Z,0.93
2022-10-07T16:39:41.281Z,1.05
2022-10-07T16:42:10.880Z,1.30
2022-10-07T16:44:37.703Z,1.48
2022-10-07T16:47:04.707Z,1.52
2022-10-07T16:49:31.622Z,1.40
2022-10-07T16:51:58.690Z,1.10
2022-10-07T16:54:29.689Z,1.10
2022-10-07T16:56:57.588Z,1.20
2022-10-07T16:59:25.273Z,1.10
2022-10-07T17:01:56.234Z,2.83
2022-10-07T17:04:25.303Z,1.70
2022-10-07T17:06:55.416Z,1.33
2022-10-07T17:09:28.046Z,1.80
2022-10-07T17:12:12.668Z,1.50
2022-10-07T17:14:39.779Z,1.17
2022-10-07T17:17:08.054Z,1.38
2022-10-07T17:19:36.572Z,1.70
2022-10-07T17:22:04.362Z,1.80
2022-10-07T17:24:33.606Z,1.10
2022-10-07T17:27:11.613Z,1.60
2022-10-07T17:29:51.383Z,1.30
2022-10-07T17:32:27.277Z,1.35
2022-10-07T17:35:00.983Z,1.25
2022-10-07T17:37:46.750Z,1.50
2022-10-07T17:40:13.729Z,1.80
2022-10-07T17:42:40.504Z,1.48
2022-10-07T17:45:10.258Z,1.30
2022-10-07T17:47:37.031Z,1.27
2022-10-07T17:50:05.026Z,1.05
2022-10-07T17:52:32.257Z,1.67
2022-10-07T17:54:59.030Z,1.70
2022-10-07T17:57:25.773Z,1.30
2022-10-07T17:59:52.927Z,1.50
2022-10-07T18:02:20.112Z,1.25
2022-10-07T18:04:46.811Z,1.45
2022-10-07T18:07:16.109Z,1.20
2022-10-07T18:09:43.181Z,1.38
2022-10-07T18:12:30.696Z,1.40
2022-10-07T18:15:19.917Z,1.50
2022-10-07T18:17:51.780Z,1.38
2022-10-07T18:20:21.209Z,1.60
2022-10-07T18:22:55.579Z,1.50
2022-10-07T18:25:22.968Z,1.63
2022-10-07T18:27:53.371Z,1.55
2022-10-07T18:30:20.071Z,1.50
2022-10-07T18:32:46.865Z,1.50
2022-10-07T18:35:13.537Z,1.60
2022-10-07T18:37:40.217Z,1.60
2022-10-07T18:40:07.597Z,1.13
2022-10-07T18:42:37.417Z,1.50
2022-10-07T18:45:04.715Z,1.50
2022-10-07T18:47:31.391Z,1.30
2022-10-07T18:49:58.065Z,1.90
2022-10-07T18:52:25.178Z,1.13
2022-10-07T18:54:51.905Z,1.20
2022-10-07T18:57:19.615Z,1.00
2022-10-07T18:59:49.421Z,1.48
2022-10-07T19:02:16.416Z,2.70
2022-10-07T19:04:43.240Z,1.70
2022-10-07T19:07:09.954Z,1.95
2022-10-07T19:09:36.678Z,1.40
2022-10-07T19:12:03.772Z,1.60
2022-10-07T19:14:31.129Z,1.60
2022-10-07T19:16:57.850Z,1.52
2022-10-07T19:19:25.564Z,2.03
2022-10-07T19:21:55.074Z,1.58
2022-10-07T19:24:42.449Z,1.20
2022-10-07T19:27:10.284Z,2.03
2022-10-07T19:29:44.325Z,1.38
2022-10-07T19:32:11.053Z,1.55
2022-10-07T19:34:37.826Z,1.30
2022-10-07T19:37:04.544Z,1.10
2022-10-07T19:39:31.432Z,1.35
2022-10-07T19:41:58.726Z,1.30
2022-10-07T19:44:25.534Z,1.45
2022-10-07T19:46:54.137Z,1.35
2022-10-07T19:49:22.241Z,1.80
2022-10-07T19:51:49.042Z,1.23
2022-10-07T19:54:15.872Z,1.80
2022-10-07T19:56:47.139Z,2.28
2022-10-07T19:59:15.043Z,1.48
2022-10-07T20:01:45.143Z,1.40
2022-10-07T20:04:15.356Z,2.35
2022-10-07T20:06:43.085Z,1.63
2022-10-07T20:09:16.371Z,1.50
2022-10-07T20:11:44.275Z,1.45
2022-10-07T20:14:11.094Z,1.20
2022-10-07T20:16:39.124Z,2.50
2022-10-07T20:19:14.209Z,1.50
2022-10-07T20:21:41.792Z,1.17
2022-10-07T20:24:14.362Z,1.38
2022-10-07T20:26:44.072Z,1.70
2022-10-07T20:29:13.603Z,1.20
2022-10-07T20:31:43.765Z,1.80
2022-10-07T20:34:15.722Z,1.63
2022-10-07T20:36:42.984Z,1.70
2022-10-07T20:39:39.435Z,2.97
2022-10-07T20:42:21.832Z,1.90
2022-10-07T20:44:51.819Z,1.40
2022-10-07T20:47:20.613Z,1.73
2022-10-07T20:49:48.831Z,1.58
2022-10-07T20:52:22.293Z,1.10
2022-10-07T20:54:50.133Z,1.38
2022-10-07T20:57:21.262Z,1.35
2022-10-07T20:59:48.735Z,1.73
2022-10-07T21:02:19.379Z,1.60
2022-10-07T21:04:48.862Z,1.58
2022-10-07T21:07:17.607Z,1.83
2022-10-07T21:09:47.940Z,1.45
2022-10-07T21:12:18.181Z,1.80
2022-10-07T21:14:47.693Z,1.80
2022-10-07T21:17:15.711Z,1.35
2022-10-07T21:19:42.547Z,1.20
2022-10-07T21:22:09.585Z,1.38
2022-10-07T21:24:36.386Z,1.30
2022-10-07T21:27:05.976Z,1.30
2022-10-07T21:29:37.484Z,1.40
2022-10-07T21:32:09.543Z,1.50
2022-10-07T21:34:36.740Z,2.60
2022-10-07T21:37:04.680Z,1.40
2022-10-07T21:39:31.433Z,1.02
2022-10-07T21:41:59.719Z,1.98
2022-10-07T21:44:27.452Z,1.40
2022-10-07T21:46:54.279Z,1.10
2022-10-07T21:49:20.977Z,1.13
2022-10-07T21:51:47.952Z,1.10
2022-10-07T21:54:19.696Z,1.25
2022-10-07T21:56:46.948Z,1.10
2022-10-07T21:59:14.631Z,1.15
2022-10-07T22:01:42.559Z,1.23
2022-10-07T22:04:18.823Z,1.42
2022-10-07T22:07:04.850Z,1.30
2022-10-07T22:09:31.952Z,1.08
2022-10-07T22:11:58.737Z,1.60
2022-10-07T22:14:25.481Z,1.13
2022-10-07T22:16:52.191Z,1.15
2022-10-07T22:19:19.018Z,1.50
2022-10-07T22:21:46.027Z,1.30
2022-10-07T22:24:13.967Z,1.30
2022-10-07T22:26:46.063Z,1.30
2022-10-07T22:29:16.815Z,1.08
2022-10-07T22:31:47.021Z,2.22
2022-10-07T22:34:33.044Z,1.15
2022-10-07T22:37:00.080Z,1.17
2022-10-07T22:39:29.102Z,1.40
2022-10-07T22:41:57.151Z,1.05
2022-10-07T22:44:28.165Z,1.27
2022-10-07T22:46:59.243Z,1.25
2022-10-07T22:49:29.579Z,1.45
2022-10-07T22:51:59.352Z,1.13
2022-10-07T22:54:26.886Z,1.25
2022-10-07T22:56:53.761Z,1.20
2022-10-07T22:59:21.104Z,1.33
2022-10-07T23:01:50.324Z,1.20
2022-10-07T23:04:20.065Z,1.38
2022-10-07T23:06:46.813Z,1.20
2022-10-07T23:09:13.506Z,1.20
2022-10-07T23:11:40.242Z,1.10
2022-10-07T23:14:07.026Z,3.20
2022-10-07T23:16:36.379Z,1.75
2022-10-07T23:19:03.229Z,1.10
2022-10-07T23:21:37.307Z,2.38
2022-10-07T23:24:07.649Z,1.10
2022-10-07T23:26:35.956Z,1.63
2022-10-07T23:29:03.252Z,1.35
2022-10-07T23:31:32.307Z,1.42
2022-10-07T23:34:02.216Z,1.88
2022-10-07T23:36:30.177Z,1.30
2022-10-07T23:39:00.256Z,1.42
2022-10-07T23:41:31.774Z,0.98
2022-10-07T23:44:04.241Z,0.88
2022-10-07T23:46:36.150Z,1.10
2022-10-07T23:49:04.709Z,0.85
2022-10-07T23:51:32.759Z,0.77
2022-10-07T23:54:02.206Z,0.70
2022-10-07T23:56:31.199Z,0.90
2022-10-07T23:58:58.131Z,0.77
